Metar z połowy godziny Komunikat METAR ze strony awiacja.imgw.pl Metar G30 EPPW METAR EPPW 221430Z 25010KT 9999 SCT050 17/04 Q1016 RMK 165 044 3/3=